sensor_id;sensor_type;location;lat;lon;timestamp;P1;durP1;ratioP1;P2;durP2;ratioP2
79330;SDS011;68797;49.782;19.054;2024-01-11T00:00:18;67.60;;;27.05;;
79330;SDS011;68797;49.782;19.054;2024-01-11T00:03:06;69.97;;;25.17;;
79330;SDS011;68797;49.782;19.054;2024-01-11T00:05:33;66.15;;;25.40;;
79330;SDS011;68797;49.782;19.054;2024-01-11T00:08:01;67.22;;;24.00;;
79330;SDS011;68797;49.782;19.054;2024-01-11T00:10:29;66.93;;;23.35;;
79330;SDS011;68797;49.782;19.054;2024-01-11T00:12:56;75.80;;;26.42;;
79330;SDS011;68797;49.782;19.054;2024-01-11T00:15:24;79.25;;;27.17;;
79330;SDS011;68797;49.782;19.054;2024-01-11T00:17:51;53.33;;;22.25;;
79330;SDS011;68797;49.782;19.054;2024-01-11T00:20:17;67.68;;;24.73;;
79330;SDS011;68797;49.782;19.054;2024-01-11T00:22:47;67.07;;;26.50;;
79330;SDS011;68797;49.782;19.054;2024-01-11T00:25:13;81.95;;;28.52;;
79330;SDS011;68797;49.782;19.054;2024-01-11T00:27:41;92.82;;;34.65;;
79330;SDS011;68797;49.782;19.054;2024-01-11T00:30:09;81.40;;;31.10;;
79330;SDS011;68797;49.782;19.054;2024-01-11T00:32:38;88.05;;;38.55;;
79330;SDS011;68797;49.782;19.054;2024-01-11T00:35:06;122.13;;;45.72;;
79330;SDS011;68797;49.782;19.054;2024-01-11T00:37:34;104.97;;;37.88;;
79330;SDS011;68797;49.782;19.054;2024-01-11T00:40:01;116.32;;;44.47;;
79330;SDS011;68797;49.782;19.054;2024-01-11T00:42:30;105.10;;;42.45;;
79330;SDS011;68797;49.782;19.054;2024-01-11T00:44:58;116.18;;;48.70;;
79330;SDS011;68797;49.782;19.054;2024-01-11T00:47:29;83.93;;;32.08;;
79330;SDS011;68797;49.782;19.054;2024-01-11T00:49:56;72.78;;;27.45;;
79330;SDS011;68797;49.782;19.054;2024-01-11T00:52:25;75.82;;;26.65;;
79330;SDS011;68797;49.782;19.054;2024-01-11T00:54:53;74.22;;;27.73;;
79330;SDS011;68797;49.782;19.054;2024-01-11T00:57:22;66.63;;;25.85;;
79330;SDS011;68797;49.782;19.054;2024-01-11T00:59:48;100.43;;;34.47;;
79330;SDS011;68797;49.782;19.054;2024-01-11T01:02:19;87.75;;;33.03;;
79330;SDS011;68797;49.782;19.054;2024-01-11T01:04:47;91.28;;;34.10;;
79330;SDS011;68797;49.782;19.054;2024-01-11T01:07:16;66.22;;;27.17;;
79330;SDS011;68797;49.782;19.054;2024-01-11T01:09:44;70.82;;;26.15;;
79330;SDS011;68797;49.782;19.054;2024-01-11T01:12:11;62.90;;;23.30;;
79330;SDS011;68797;49.782;19.054;2024-01-11T01:14:40;72.93;;;29.70;;
79330;SDS011;68797;49.782;19.054;2024-01-11T01:17:10;72.85;;;24.40;;
79330;SDS011;68797;49.782;19.054;2024-01-11T01:19:38;55.30;;;21.13;;
79330;SDS011;68797;49.782;19.054;2024-01-11T01:22:07;79.93;;;26.95;;
79330;SDS011;68797;49.782;19.054;2024-01-11T01:24:33;57.65;;;22.10;;
79330;SDS011;68797;49.782;19.054;2024-01-11T01:27:01;58.03;;;21.42;;
79330;SDS011;68797;49.782;19.054;2024-01-11T01:29:27;63.63;;;20.38;;
79330;SDS011;68797;49.782;19.054;2024-01-11T01:31:56;56.67;;;24.13;;
79330;SDS011;68797;49.782;19.054;2024-01-11T01:34:23;88.57;;;28.08;;
79330;SDS011;68797;49.782;19.054;2024-01-11T01:37:00;52.75;;;20.48;;
79330;SDS011;68797;49.782;19.054;2024-01-11T01:39:28;62.17;;;23.50;;
79330;SDS011;68797;49.782;19.054;2024-01-11T01:41:55;61.60;;;23.95;;
79330;SDS011;68797;49.782;19.054;2024-01-11T01:44:22;51.95;;;20.48;;
79330;SDS011;68797;49.782;19.054;2024-01-11T01:46:55;54.58;;;20.33;;
79330;SDS011;68797;49.782;19.054;2024-01-11T01:49:26;55.10;;;19.83;;
79330;SDS011;68797;49.782;19.054;2024-01-11T01:51:55;74.38;;;27.50;;
79330;SDS011;68797;49.782;19.054;2024-01-11T01:54:22;68.75;;;27.98;;
79330;SDS011;68797;49.782;19.054;2024-01-11T01:56:53;69.55;;;24.88;;
79330;SDS011;68797;49.782;19.054;2024-01-11T01:59:22;56.28;;;22.42;;
79330;SDS011;68797;49.782;19.054;2024-01-11T02:01:55;62.83;;;23.70;;
79330;SDS011;68797;49.782;19.054;2024-01-11T02:04:24;69.20;;;27.02;;
79330;SDS011;68797;49.782;19.054;2024-01-11T02:06:58;64.28;;;23.55;;
79330;SDS011;68797;49.782;19.054;2024-01-11T02:09:29;65.15;;;24.73;;
79330;SDS011;68797;49.782;19.054;2024-01-11T02:11:59;65.63;;;24.80;;
79330;SDS011;68797;49.782;19.054;2024-01-11T02:14:41;57.97;;;21.65;;
79330;SDS011;68797;49.782;19.054;2024-01-11T02:17:11;51.28;;;22.90;;
79330;SDS011;68797;49.782;19.054;2024-01-11T02:19:38;69.28;;;23.52;;
79330;SDS011;68797;49.782;19.054;2024-01-11T02:22:11;61.97;;;25.08;;
79330;SDS011;68797;49.782;19.054;2024-01-11T02:24:49;88.03;;;27.45;;
79330;SDS011;68797;49.782;19.054;2024-01-11T02:27:16;72.35;;;28.23;;
79330;SDS011;68797;49.782;19.054;2024-01-11T02:29:44;66.38;;;25.73;;
79330;SDS011;68797;49.782;19.054;2024-01-11T02:32:12;63.58;;;24.65;;
79330;SDS011;68797;49.782;19.054;2024-01-11T02:34:39;53.67;;;21.77;;
79330;SDS011;68797;49.782;19.054;2024-01-11T02:37:10;74.68;;;26.23;;
79330;SDS011;68797;49.782;19.054;2024-01-11T02:39:39;82.22;;;28.25;;
79330;SDS011;68797;49.782;19.054;2024-01-11T02:42:13;81.30;;;29.20;;
79330;SDS011;68797;49.782;19.054;2024-01-11T02:44:40;102.93;;;37.90;;
79330;SDS011;68797;49.782;19.054;2024-01-11T02:47:21;106.75;;;40.35;;
79330;SDS011;68797;49.782;19.054;2024-01-11T02:49:50;107.50;;;45.05;;
79330;SDS011;68797;49.782;19.054;2024-01-11T02:52:19;105.45;;;40.22;;
79330;SDS011;68797;49.782;19.054;2024-01-11T02:57:14;68.88;;;26.02;;
79330;SDS011;68797;49.782;19.054;2024-01-11T02:59:42;77.10;;;29.73;;
79330;SDS011;68797;49.782;19.054;2024-01-11T03:02:10;87.47;;;31.17;;
79330;SDS011;68797;49.782;19.054;2024-01-11T03:04:48;75.25;;;31.90;;
79330;SDS011;68797;49.782;19.054;2024-01-11T03:07:15;91.35;;;32.65;;
79330;SDS011;68797;49.782;19.054;2024-01-11T03:09:42;100.88;;;33.72;;
79330;SDS011;68797;49.782;19.054;2024-01-11T03:12:09;81.05;;;31.63;;
79330;SDS011;68797;49.782;19.054;2024-01-11T03:14:36;75.20;;;30.02;;
79330;SDS011;68797;49.782;19.054;2024-01-11T03:17:06;66.18;;;28.58;;
79330;SDS011;68797;49.782;19.054;2024-01-11T03:19:34;88.30;;;32.20;;
79330;SDS011;68797;49.782;19.054;2024-01-11T03:22:07;83.07;;;30.75;;
79330;SDS011;68797;49.782;19.054;2024-01-11T03:24:39;89.45;;;31.65;;
79330;SDS011;68797;49.782;19.054;2024-01-11T03:27:08;67.35;;;28.48;;
79330;SDS011;68797;49.782;19.054;2024-01-11T03:29:34;71.88;;;25.02;;
79330;SDS011;68797;49.782;19.054;2024-01-11T03:32:00;72.95;;;29.42;;
79330;SDS011;68797;49.782;19.054;2024-01-11T03:34:30;64.80;;;22.88;;
79330;SDS011;68797;49.782;19.054;2024-01-11T03:36:56;42.05;;;17.83;;
79330;SDS011;68797;49.782;19.054;2024-01-11T03:39:23;44.45;;;18.10;;
79330;SDS011;68797;49.782;19.054;2024-01-11T03:41:54;51.58;;;19.48;;
79330;SDS011;68797;49.782;19.054;2024-01-11T03:44:23;61.20;;;21.33;;
79330;SDS011;68797;49.782;19.054;2024-01-11T03:46:50;48.35;;;19.08;;
79330;SDS011;68797;49.782;19.054;2024-01-11T03:49:19;49.97;;;18.65;;
79330;SDS011;68797;49.782;19.054;2024-01-11T03:51:47;32.60;;;15.23;;
79330;SDS011;68797;49.782;19.054;2024-01-11T03:54:16;57.25;;;20.70;;
79330;SDS011;68797;49.782;19.054;2024-01-11T03:56:43;35.50;;;15.25;;
79330;SDS011;68797;49.782;19.054;2024-01-11T03:59:11;41.88;;;15.18;;
79330;SDS011;68797;49.782;19.054;2024-01-11T04:01:40;43.03;;;17.77;;
79330;SDS011;68797;49.782;19.054;2024-01-11T04:04:07;44.72;;;16.17;;
79330;SDS011;68797;49.782;19.054;2024-01-11T04:06:34;50.92;;;17.50;;
79330;SDS011;68797;49.782;19.054;2024-01-11T04:09:10;50.08;;;15.73;;
79330;SDS011;68797;49.782;19.054;2024-01-11T04:11:39;43.13;;;15.65;;
79330;SDS011;68797;49.782;19.054;2024-01-11T04:14:06;45.40;;;18.80;;
79330;SDS011;68797;49.782;19.054;2024-01-11T04:16:39;65.95;;;21.40;;
79330;SDS011;68797;49.782;19.054;2024-01-11T04:19:09;52.20;;;21.30;;
79330;SDS011;68797;49.782;19.054;2024-01-11T04:21:36;50.30;;;20.27;;
79330;SDS011;68797;49.782;19.054;2024-01-11T04:24:06;60.83;;;25.15;;
79330;SDS011;68797;49.782;19.054;2024-01-11T04:26:38;73.10;;;28.55;;
79330;SDS011;68797;49.782;19.054;2024-01-11T04:29:05;76.30;;;30.00;;
79330;SDS011;68797;49.782;19.054;2024-01-11T04:31:32;97.68;;;31.92;;
79330;SDS011;68797;49.782;19.054;2024-01-11T04:34:01;74.75;;;28.58;;
79330;SDS011;68797;49.782;19.054;2024-01-11T04:36:30;59.03;;;21.40;;
79330;SDS011;68797;49.782;19.054;2024-01-11T04:39:00;56.15;;;26.35;;
79330;SDS011;68797;49.782;19.054;2024-01-11T04:41:27;57.95;;;24.75;;
79330;SDS011;68797;49.782;19.054;2024-01-11T04:43:54;57.40;;;23.55;;
79330;SDS011;68797;49.782;19.054;2024-01-11T04:46:22;59.05;;;23.80;;
79330;SDS011;68797;49.782;19.054;2024-01-11T04:48:50;60.13;;;23.40;;
79330;SDS011;68797;49.782;19.054;2024-01-11T04:51:17;45.88;;;19.83;;
79330;SDS011;68797;49.782;19.054;2024-01-11T04:53:48;32.78;;;13.43;;
79330;SDS011;68797;49.782;19.054;2024-01-11T04:56:15;44.70;;;18.08;;
79330;SDS011;68797;49.782;19.054;2024-01-11T04:58:44;34.95;;;13.18;;
79330;SDS011;68797;49.782;19.054;2024-01-11T05:01:16;38.25;;;14.50;;
79330;SDS011;68797;49.782;19.054;2024-01-11T05:03:47;29.30;;;12.00;;
79330;SDS011;68797;49.782;19.054;2024-01-11T05:06:20;36.85;;;13.68;;
79330;SDS011;68797;49.782;19.054;2024-01-11T05:08:53;32.90;;;12.77;;
79330;SDS011;68797;49.782;19.054;2024-01-11T05:11:25;36.05;;;12.82;;
79330;SDS011;68797;49.782;19.054;2024-01-11T05:13:55;32.42;;;11.50;;
79330;SDS011;68797;49.782;19.054;2024-01-11T05:16:27;35.95;;;14.52;;
79330;SDS011;68797;49.782;19.054;2024-01-11T05:18:58;30.40;;;13.07;;
79330;SDS011;68797;49.782;19.054;2024-01-11T05:21:25;29.48;;;12.93;;
79330;SDS011;68797;49.782;19.054;2024-01-11T05:23:54;34.42;;;12.15;;
79330;SDS011;68797;49.782;19.054;2024-01-11T05:26:34;34.30;;;13.48;;
79330;SDS011;68797;49.782;19.054;2024-01-11T05:29:01;38.78;;;12.80;;
79330;SDS011;68797;49.782;19.054;2024-01-11T05:31:31;50.45;;;15.98;;
79330;SDS011;68797;49.782;19.054;2024-01-11T05:34:02;35.25;;;13.05;;
79330;SDS011;68797;49.782;19.054;2024-01-11T05:37:05;34.72;;;11.27;;
79330;SDS011;68797;49.782;19.054;2024-01-11T05:39:44;36.65;;;12.93;;
79330;SDS011;68797;49.782;19.054;2024-01-11T05:42:29;34.53;;;13.60;;
79330;SDS011;68797;49.782;19.054;2024-01-11T05:45:52;27.48;;;9.93;;
79330;SDS011;68797;49.782;19.054;2024-01-11T05:49:09;14.45;;;5.72;;
79330;SDS011;68797;49.782;19.054;2024-01-11T05:55:24;33.42;;;13.95;;
79330;SDS011;68797;49.782;19.054;2024-01-11T05:58:31;23.52;;;10.23;;
79330;SDS011;68797;49.782;19.054;2024-01-11T06:01:52;34.67;;;10.73;;
79330;SDS011;68797;49.782;19.054;2024-01-11T06:05:07;23.10;;;9.73;;
79330;SDS011;68797;49.782;19.054;2024-01-11T06:08:37;20.90;;;10.80;;
79330;SDS011;68797;49.782;19.054;2024-01-11T06:12:31;26.50;;;11.40;;
79330;SDS011;68797;49.782;19.054;2024-01-11T06:15:25;21.73;;;10.75;;
79330;SDS011;68797;49.782;19.054;2024-01-11T06:19:03;29.80;;;9.43;;
79330;SDS011;68797;49.782;19.054;2024-01-11T06:22:17;20.63;;;11.88;;
79330;SDS011;68797;49.782;19.054;2024-01-11T06:25:33;31.17;;;11.07;;
79330;SDS011;68797;49.782;19.054;2024-01-11T06:28:31;34.78;;;12.20;;
79330;SDS011;68797;49.782;19.054;2024-01-11T06:30:58;33.70;;;14.27;;
79330;SDS011;68797;49.782;19.054;2024-01-11T06:33:26;33.67;;;12.73;;
79330;SDS011;68797;49.782;19.054;2024-01-11T06:35:54;43.88;;;15.73;;
79330;SDS011;68797;49.782;19.054;2024-01-11T06:38:23;22.42;;;11.07;;
79330;SDS011;68797;49.782;19.054;2024-01-11T06:40:53;20.67;;;9.02;;
79330;SDS011;68797;49.782;19.054;2024-01-11T06:43:21;33.05;;;11.95;;
79330;SDS011;68797;49.782;19.054;2024-01-11T06:45:48;33.08;;;11.70;;
79330;SDS011;68797;49.782;19.054;2024-01-11T06:48:17;26.35;;;10.35;;
79330;SDS011;68797;49.782;19.054;2024-01-11T06:50:43;28.85;;;12.05;;
79330;SDS011;68797;49.782;19.054;2024-01-11T06:56:16;28.33;;;9.35;;
79330;SDS011;68797;49.782;19.054;2024-01-11T06:58:43;20.15;;;7.40;;
79330;SDS011;68797;49.782;19.054;2024-01-11T07:01:13;28.42;;;10.45;;
79330;SDS011;68797;49.782;19.054;2024-01-11T07:03:43;32.65;;;11.75;;
79330;SDS011;68797;49.782;19.054;2024-01-11T07:06:11;37.40;;;15.07;;
79330;SDS011;68797;49.782;19.054;2024-01-11T07:08:40;48.38;;;20.02;;
79330;SDS011;68797;49.782;19.054;2024-01-11T07:11:08;48.95;;;20.75;;
79330;SDS011;68797;49.782;19.054;2024-01-11T07:13:43;24.52;;;11.90;;
79330;SDS011;68797;49.782;19.054;2024-01-11T07:16:10;34.58;;;12.55;;
79330;SDS011;68797;49.782;19.054;2024-01-11T07:18:37;40.78;;;14.73;;
79330;SDS011;68797;49.782;19.054;2024-01-11T07:21:04;25.38;;;11.02;;
79330;SDS011;68797;49.782;19.054;2024-01-11T07:23:32;41.10;;;16.83;;
79330;SDS011;68797;49.782;19.054;2024-01-11T07:26:00;41.30;;;16.95;;
79330;SDS011;68797;49.782;19.054;2024-01-11T07:28:28;45.38;;;15.77;;
79330;SDS011;68797;49.782;19.054;2024-01-11T07:30:55;49.50;;;19.35;;
79330;SDS011;68797;49.782;19.054;2024-01-11T07:33:24;39.15;;;17.67;;
79330;SDS011;68797;49.782;19.054;2024-01-11T07:35:51;25.98;;;10.82;;
79330;SDS011;68797;49.782;19.054;2024-01-11T07:38:19;33.75;;;13.32;;
79330;SDS011;68797;49.782;19.054;2024-01-11T07:40:45;49.30;;;16.42;;
79330;SDS011;68797;49.782;19.054;2024-01-11T07:43:12;39.45;;;19.13;;
79330;SDS011;68797;49.782;19.054;2024-01-11T07:45:41;51.08;;;20.75;;
79330;SDS011;68797;49.782;19.054;2024-01-11T07:48:09;57.65;;;25.70;;
79330;SDS011;68797;49.782;19.054;2024-01-11T07:50:36;44.17;;;16.05;;
79330;SDS011;68797;49.782;19.054;2024-01-11T07:53:07;29.67;;;12.20;;
79330;SDS011;68797;49.782;19.054;2024-01-11T07:55:33;39.80;;;14.30;;
79330;SDS011;68797;49.782;19.054;2024-01-11T07:58:09;36.53;;;13.82;;
79330;SDS011;68797;49.782;19.054;2024-01-11T08:00:38;42.80;;;14.05;;
79330;SDS011;68797;49.782;19.054;2024-01-11T08:03:05;28.83;;;12.68;;
79330;SDS011;68797;49.782;19.054;2024-01-11T08:05:34;29.95;;;11.18;;
79330;SDS011;68797;49.782;19.054;2024-01-11T08:08:01;34.80;;;12.98;;
79330;SDS011;68797;49.782;19.054;2024-01-11T08:10:30;43.42;;;15.20;;
79330;SDS011;68797;49.782;19.054;2024-01-11T08:13:00;29.52;;;12.43;;
79330;SDS011;68797;49.782;19.054;2024-01-11T08:15:27;30.23;;;11.75;;
79330;SDS011;68797;49.782;19.054;2024-01-11T08:17:57;31.60;;;14.02;;
79330;SDS011;68797;49.782;19.054;2024-01-11T08:20:31;44.70;;;17.13;;
79330;SDS011;68797;49.782;19.054;2024-01-11T08:22:59;49.05;;;18.25;;
79330;SDS011;68797;49.782;19.054;2024-01-11T08:25:27;42.13;;;15.13;;
79330;SDS011;68797;49.782;19.054;2024-01-11T08:28:00;34.92;;;13.45;;
79330;SDS011;68797;49.782;19.054;2024-01-11T08:30:30;28.73;;;12.50;;
79330;SDS011;68797;49.782;19.054;2024-01-11T08:32:58;49.35;;;15.80;;
79330;SDS011;68797;49.782;19.054;2024-01-11T08:35:24;28.63;;;11.82;;
79330;SDS011;68797;49.782;19.054;2024-01-11T08:37:51;32.05;;;13.32;;
79330;SDS011;68797;49.782;19.054;2024-01-11T08:40:18;41.15;;;14.82;;
79330;SDS011;68797;49.782;19.054;2024-01-11T08:42:45;34.13;;;13.80;;
79330;SDS011;68797;49.782;19.054;2024-01-11T08:45:12;34.67;;;13.45;;
79330;SDS011;68797;49.782;19.054;2024-01-11T08:47:53;42.97;;;18.02;;
79330;SDS011;68797;49.782;19.054;2024-01-11T08:50:20;43.60;;;16.65;;
79330;SDS011;68797;49.782;19.054;2024-01-11T08:52:51;49.03;;;18.52;;
79330;SDS011;68797;49.782;19.054;2024-01-11T08:55:20;46.90;;;19.67;;
79330;SDS011;68797;49.782;19.054;2024-01-11T08:57:56;65.68;;;27.20;;
79330;SDS011;68797;49.782;19.054;2024-01-11T09:00:23;71.00;;;26.52;;
79330;SDS011;68797;49.782;19.054;2024-01-11T09:03:05;67.82;;;25.27;;
79330;SDS011;68797;49.782;19.054;2024-01-11T09:05:37;58.53;;;24.90;;
79330;SDS011;68797;49.782;19.054;2024-01-11T09:08:06;58.30;;;25.00;;
79330;SDS011;68797;49.782;19.054;2024-01-11T09:10:39;65.75;;;25.02;;
79330;SDS011;68797;49.782;19.054;2024-01-11T09:13:12;60.67;;;24.58;;
79330;SDS011;68797;49.782;19.054;2024-01-11T09:15:40;58.85;;;24.55;;
79330;SDS011;68797;49.782;19.054;2024-01-11T09:18:20;71.22;;;26.42;;
79330;SDS011;68797;49.782;19.054;2024-01-11T09:20:48;64.20;;;25.73;;
79330;SDS011;68797;49.782;19.054;2024-01-11T09:23:16;65.82;;;24.45;;
79330;SDS011;68797;49.782;19.054;2024-01-11T09:25:45;60.78;;;24.70;;
79330;SDS011;68797;49.782;19.054;2024-01-11T09:28:14;53.92;;;18.20;;
79330;SDS011;68797;49.782;19.054;2024-01-11T09:30:41;66.68;;;25.95;;
79330;SDS011;68797;49.782;19.054;2024-01-11T09:33:08;55.45;;;25.17;;
79330;SDS011;68797;49.782;19.054;2024-01-11T09:35:35;72.85;;;28.70;;
79330;SDS011;68797;49.782;19.054;2024-01-11T09:38:04;73.25;;;28.45;;
79330;SDS011;68797;49.782;19.054;2024-01-11T09:40:31;79.75;;;30.80;;
79330;SDS011;68797;49.782;19.054;2024-01-11T09:43:02;96.00;;;32.55;;
79330;SDS011;68797;49.782;19.054;2024-01-11T09:45:30;97.75;;;37.60;;
79330;SDS011;68797;49.782;19.054;2024-01-11T09:48:03;81.55;;;33.78;;
79330;SDS011;68797;49.782;19.054;2024-01-11T09:50:39;67.43;;;28.85;;
79330;SDS011;68797;49.782;19.054;2024-01-11T09:53:06;67.50;;;27.92;;
79330;SDS011;68797;49.782;19.054;2024-01-11T09:55:33;68.43;;;29.02;;
79330;SDS011;68797;49.782;19.054;2024-01-11T09:58:02;83.88;;;33.70;;
79330;SDS011;68797;49.782;19.054;2024-01-11T10:03:02;95.45;;;40.05;;
79330;SDS011;68797;49.782;19.054;2024-01-11T10:05:28;104.60;;;41.00;;
79330;SDS011;68797;49.782;19.054;2024-01-11T10:10:58;105.90;;;43.80;;
79330;SDS011;68797;49.782;19.054;2024-01-11T10:13:26;102.97;;;45.33;;
79330;SDS011;68797;49.782;19.054;2024-01-11T10:16:08;137.30;;;55.17;;
79330;SDS011;68797;49.782;19.054;2024-01-11T10:18:42;202.05;;;67.50;;
79330;SDS011;68797;49.782;19.054;2024-01-11T10:21:10;151.50;;;56.53;;
79330;SDS011;68797;49.782;19.054;2024-01-11T10:23:41;133.63;;;54.28;;
79330;SDS011;68797;49.782;19.054;2024-01-11T10:26:09;255.40;;;87.43;;
79330;SDS011;68797;49.782;19.054;2024-01-11T10:28:38;136.43;;;57.75;;
79330;SDS011;68797;49.782;19.054;2024-01-11T10:31:04;133.40;;;53.92;;
79330;SDS011;68797;49.782;19.054;2024-01-11T10:33:38;132.25;;;56.53;;
79330;SDS011;68797;49.782;19.054;2024-01-11T10:36:07;136.20;;;56.38;;
79330;SDS011;68797;49.782;19.054;2024-01-11T10:38:40;119.82;;;49.53;;
79330;SDS011;68797;49.782;19.054;2024-01-11T10:41:10;102.20;;;39.35;;
79330;SDS011;68797;49.782;19.054;2024-01-11T10:43:48;105.43;;;46.42;;
79330;SDS011;68797;49.782;19.054;2024-01-11T10:46:16;107.03;;;42.65;;
79330;SDS011;68797;49.782;19.054;2024-01-11T10:48:49;111.28;;;45.95;;
79330;SDS011;68797;49.782;19.054;2024-01-11T10:51:21;115.60;;;50.80;;
79330;SDS011;68797;49.782;19.054;2024-01-11T10:53:52;110.68;;;45.80;;
79330;SDS011;68797;49.782;19.054;2024-01-11T10:56:20;123.93;;;47.53;;
79330;SDS011;68797;49.782;19.054;2024-01-11T10:59:02;112.70;;;45.45;;
79330;SDS011;68797;49.782;19.054;2024-01-11T11:01:31;108.95;;;45.45;;
79330;SDS011;68797;49.782;19.054;2024-01-11T11:03:59;106.93;;;45.22;;
79330;SDS011;68797;49.782;19.054;2024-01-11T11:06:29;127.13;;;48.58;;
79330;SDS011;68797;49.782;19.054;2024-01-11T11:09:00;120.07;;;53.15;;
79330;SDS011;68797;49.782;19.054;2024-01-11T11:11:31;122.03;;;51.92;;
79330;SDS011;68797;49.782;19.054;2024-01-11T11:14:06;108.60;;;46.75;;
79330;SDS011;68797;49.782;19.054;2024-01-11T11:16:43;115.55;;;44.45;;
79330;SDS011;68797;49.782;19.054;2024-01-11T11:19:11;128.18;;;56.38;;
79330;SDS011;68797;49.782;19.054;2024-01-11T11:21:42;93.63;;;40.10;;
79330;SDS011;68797;49.782;19.054;2024-01-11T11:24:12;83.22;;;31.48;;
79330;SDS011;68797;49.782;19.054;2024-01-11T11:26:44;105.68;;;43.17;;
79330;SDS011;68797;49.782;19.054;2024-01-11T11:29:11;98.90;;;38.20;;
79330;SDS011;68797;49.782;19.054;2024-01-11T11:31:45;75.43;;;28.73;;
79330;SDS011;68797;49.782;19.054;2024-01-11T11:34:20;77.85;;;28.20;;
79330;SDS011;68797;49.782;19.054;2024-01-11T11:37:09;56.88;;;25.35;;
79330;SDS011;68797;49.782;19.054;2024-01-11T11:39:38;84.28;;;32.88;;
79330;SDS011;68797;49.782;19.054;2024-01-11T11:42:13;62.60;;;27.17;;
79330;SDS011;68797;49.782;19.054;2024-01-11T11:44:49;26.00;;;11.38;;
79330;SDS011;68797;49.782;19.054;2024-01-11T11:47:20;16.58;;;7.13;;
79330;SDS011;68797;49.782;19.054;2024-01-11T11:50:10;14.07;;;5.80;;
79330;SDS011;68797;49.782;19.054;2024-01-11T11:52:40;12.98;;;5.55;;
79330;SDS011;68797;49.782;19.054;2024-01-11T11:55:10;9.82;;;4.68;;
79330;SDS011;68797;49.782;19.054;2024-01-11T11:57:47;8.43;;;4.10;;
79330;SDS011;68797;49.782;19.054;2024-01-11T12:00:14;6.95;;;2.72;;
79330;SDS011;68797;49.782;19.054;2024-01-11T12:02:53;7.40;;;3.03;;
79330;SDS011;68797;49.782;19.054;2024-01-11T12:05:23;10.35;;;5.05;;
79330;SDS011;68797;49.782;19.054;2024-01-11T12:07:50;5.18;;;2.83;;
79330;SDS011;68797;49.782;19.054;2024-01-11T12:10:16;30.30;;;11.10;;
79330;SDS011;68797;49.782;19.054;2024-01-11T12:12:44;28.45;;;11.65;;
79330;SDS011;68797;49.782;19.054;2024-01-11T12:15:10;21.02;;;9.15;;
79330;SDS011;68797;49.782;19.054;2024-01-11T12:17:38;5.43;;;2.75;;
79330;SDS011;68797;49.782;19.054;2024-01-11T12:20:08;3.25;;;1.77;;
79330;SDS011;68797;49.782;19.054;2024-01-11T12:22:38;2.33;;;1.58;;
79330;SDS011;68797;49.782;19.054;2024-01-11T12:25:06;2.28;;;1.42;;
79330;SDS011;68797;49.782;19.054;2024-01-11T12:27:34;3.75;;;1.63;;
79330;SDS011;68797;49.782;19.054;2024-01-11T12:30:02;3.88;;;1.85;;
79330;SDS011;68797;49.782;19.054;2024-01-11T12:32:32;3.08;;;1.38;;
79330;SDS011;68797;49.782;19.054;2024-01-11T12:35:02;2.10;;;1.70;;
79330;SDS011;68797;49.782;19.054;2024-01-11T12:37:37;3.17;;;1.85;;
79330;SDS011;68797;49.782;19.054;2024-01-11T12:40:06;4.53;;;1.80;;
79330;SDS011;68797;49.782;19.054;2024-01-11T12:42:40;6.65;;;2.50;;
79330;SDS011;68797;49.782;19.054;2024-01-11T12:45:09;4.43;;;2.40;;
79330;SDS011;68797;49.782;19.054;2024-01-11T12:47:39;4.07;;;2.15;;
79330;SDS011;68797;49.782;19.054;2024-01-11T12:50:05;7.38;;;2.80;;
79330;SDS011;68797;49.782;19.054;2024-01-11T12:52:34;2.28;;;1.48;;
79330;SDS011;68797;49.782;19.054;2024-01-11T12:55:01;3.65;;;2.13;;
79330;SDS011;68797;49.782;19.054;2024-01-11T12:57:28;5.22;;;1.92;;
79330;SDS011;68797;49.782;19.054;2024-01-11T12:59:55;5.78;;;2.47;;
79330;SDS011;68797;49.782;19.054;2024-01-11T13:02:41;5.20;;;2.95;;
79330;SDS011;68797;49.782;19.054;2024-01-11T13:05:14;4.35;;;2.20;;
79330;SDS011;68797;49.782;19.054;2024-01-11T13:07:45;4.50;;;1.75;;
79330;SDS011;68797;49.782;19.054;2024-01-11T13:10:12;7.07;;;2.33;;
79330;SDS011;68797;49.782;19.054;2024-01-11T13:12:42;7.07;;;3.00;;
79330;SDS011;68797;49.782;19.054;2024-01-11T13:15:09;7.30;;;2.67;;
79330;SDS011;68797;49.782;19.054;2024-01-11T13:17:39;5.35;;;3.00;;
79330;SDS011;68797;49.782;19.054;2024-01-11T13:20:07;5.50;;;2.38;;
79330;SDS011;68797;49.782;19.054;2024-01-11T13:22:33;6.20;;;3.40;;
79330;SDS011;68797;49.782;19.054;2024-01-11T13:25:03;6.50;;;2.40;;
79330;SDS011;68797;49.782;19.054;2024-01-11T13:27:33;9.63;;;3.53;;
79330;SDS011;68797;49.782;19.054;2024-01-11T13:30:12;7.05;;;2.88;;
79330;SDS011;68797;49.782;19.054;2024-01-11T13:32:42;9.25;;;4.20;;
79330;SDS011;68797;49.782;19.054;2024-01-11T13:35:10;6.05;;;3.20;;
79330;SDS011;68797;49.782;19.054;2024-01-11T13:37:40;6.68;;;3.28;;
79330;SDS011;68797;49.782;19.054;2024-01-11T13:40:08;19.75;;;8.68;;
79330;SDS011;68797;49.782;19.054;2024-01-11T13:42:37;24.35;;;9.80;;
79330;SDS011;68797;49.782;19.054;2024-01-11T13:45:06;17.95;;;8.95;;
79330;SDS011;68797;49.782;19.054;2024-01-11T13:47:35;8.60;;;4.07;;
79330;SDS011;68797;49.782;19.054;2024-01-11T13:52:34;6.10;;;2.92;;
79330;SDS011;68797;49.782;19.054;2024-01-11T13:55:02;3.92;;;2.15;;
79330;SDS011;68797;49.782;19.054;2024-01-11T13:57:36;6.05;;;2.90;;
79330;SDS011;68797;49.782;19.054;2024-01-11T14:00:04;8.82;;;3.78;;
79330;SDS011;68797;49.782;19.054;2024-01-11T14:02:41;6.97;;;3.72;;
79330;SDS011;68797;49.782;19.054;2024-01-11T14:05:14;8.10;;;2.83;;
79330;SDS011;68797;49.782;19.054;2024-01-11T14:07:49;8.05;;;2.78;;
79330;SDS011;68797;49.782;19.054;2024-01-11T14:10:25;8.93;;;5.25;;
79330;SDS011;68797;49.782;19.054;2024-01-11T14:12:56;12.13;;;4.22;;
79330;SDS011;68797;49.782;19.054;2024-01-11T14:15:22;6.90;;;3.33;;
79330;SDS011;68797;49.782;19.054;2024-01-11T14:17:52;10.90;;;5.93;;
79330;SDS011;68797;49.782;19.054;2024-01-11T14:20:20;17.10;;;6.60;;
79330;SDS011;68797;49.782;19.054;2024-01-11T14:22:52;6.80;;;3.63;;
79330;SDS011;68797;49.782;19.054;2024-01-11T14:25:21;8.60;;;3.80;;
79330;SDS011;68797;49.782;19.054;2024-01-11T14:27:50;12.38;;;4.63;;
79330;SDS011;68797;49.782;19.054;2024-01-11T14:30:21;9.27;;;4.70;;
79330;SDS011;68797;49.782;19.054;2024-01-11T14:32:54;11.18;;;4.80;;
79330;SDS011;68797;49.782;19.054;2024-01-11T14:35:24;6.65;;;3.75;;
79330;SDS011;68797;49.782;19.054;2024-01-11T14:37:55;12.05;;;6.00;;
79330;SDS011;68797;49.782;19.054;2024-01-11T14:40:25;10.38;;;5.40;;
79330;SDS011;68797;49.782;19.054;2024-01-11T14:42:53;8.25;;;4.43;;
79330;SDS011;68797;49.782;19.054;2024-01-11T14:45:21;12.88;;;5.95;;
79330;SDS011;68797;49.782;19.054;2024-01-11T14:47:49;10.15;;;5.18;;
79330;SDS011;68797;49.782;19.054;2024-01-11T14:50:17;10.45;;;4.72;;
79330;SDS011;68797;49.782;19.054;2024-01-11T14:52:44;17.13;;;5.32;;